Big Bear Station Historical Data
Daily Summary for November 23, 2017 Units:  English    Metric   Both
Next Day »
Daily Weekly Monthly Yearly Custom
  High: Low: Average:
Temperature: 68.2 °F 35.8 °F 51.7 °F
Dew Point: 36.9 °F 24.8 °F 31.1 °F
Humidity: 88% 30% 48%
Wind Speed: 4.2mph 0.0mph 0.8mph
Wind Gust: -999.0mph - -
Wind- - WNW
Pressure: 30.37 in 23.65 in -
Precipitation: 0.00 in    
Historical Graphs
 
 
Tabular Data for November 23, 2017
Time Temperature Dew Point Pressure Wind Wind Speed Wind Gust Humidity Rainfall Rate (Hourly)
08:22 35.8 °F 32.6 °F 30.37 in Calm   -999.0 mph 88% 0 in
08:37 37.4 °F 33.6 °F 30.37 in Calm   -999.0 mph 86% 0 in
08:52 39.0 °F 34.3 °F 23.70 in Calm   -999.0 mph 83% 0 in
09:07 40.8 °F 34.1 °F 30.36 in Calm   -999.0 mph 77% 0 in
09:38 46.6 °F 36.2 °F 30.36 in Calm   -999.0 mph 67% 0 in
09:53 50.7 °F 36.9 °F 30.35 in Calm   -999.0 mph 59% 0 in
10:08 54.1 °F 34.8 °F 30.35 in Calm   -999.0 mph 48% 0 in
10:23 62.1 °F 34.1 °F 30.35 in Calm   -999.0 mph 35% 0 in
10:38 64.4 °F 33.9 °F 30.34 in NW 3.7 mph -999.0 mph 32% 0 in
10:54 65.5 °F 34.1 °F 30.34 in West 2.2 mph -999.0 mph 31% 0 in
11:09 66.0 °F 34.5 °F 30.33 in SSW 1.1 mph -999.0 mph 31% 0 in
11:40 67.1 °F 35.4 °F 30.32 in NW 3.7 mph -999.0 mph 31% 0 in
12:10 67.6 °F 35.1 °F 30.31 in WNW 3.7 mph -999.0 mph 30% 0 in
12:26 67.1 °F 35.4 °F 23.65 in NW 3.2 mph -999.0 mph 31% 0 in
12:41 68.2 °F 36.4 °F 30.31 in NW 2.7 mph -999.0 mph 31% 0 in
13:28 66.6 °F 35.0 °F 30.29 in NNW 4.2 mph -999.0 mph 31% 0 in
13:58 65.8 °F 35.1 °F 30.29 in NW 3.2 mph -999.0 mph 32% 0 in
14:13 65.7 °F 34.2 °F 30.29 in NNW 2.2 mph -999.0 mph 31% 0 in
14:29 65.1 °F 34.5 °F 30.29 in North 2.2 mph -999.0 mph 32% 0 in
14:45 64.8 °F 34.2 °F 30.28 in NW 2.2 mph -999.0 mph 32% 0 in
15:15 64.0 °F 34.3 °F 30.28 in Calm   -999.0 mph 33% 0 in
15:30 63.9 °F 33.5 °F 30.28 in Calm   -999.0 mph 32% 0 in
16:16 60.4 °F 31.9 °F 30.28 in Calm   -999.0 mph 34% 0 in
16:31 59.2 °F 31.6 °F 30.28 in Calm   -999.0 mph 35% 0 in
16:46 57.7 °F 31.6 °F 30.28 in SSW 2.2 mph -999.0 mph 37% 0 in
17:02 56.3 °F 30.3 °F 30.28 in Calm   -999.0 mph 37% 0 in
17:17 54.7 °F 30.2 °F 30.28 in Calm   -999.0 mph 39% 0 in
17:32 52.7 °F 29.6 °F 30.28 in Calm   -999.0 mph 41% 0 in
17:47 51.3 °F 29.6 °F 30.29 in Calm   -999.0 mph 43% 0 in
18:03 50.0 °F 29.5 °F 30.28 in Calm   -999.0 mph 45% 0 in
18:18 48.7 °F 29.4 °F 30.28 in Calm   -999.0 mph 47% 0 in
18:33 47.7 °F 30.9 °F 30.29 in Calm   -999.0 mph 52% 0 in
18:48 47.1 °F 28.4 °F 30.29 in Calm   -999.0 mph 48% 0 in
19:03 46.4 °F 26.2 °F 30.29 in Calm   -999.0 mph 45% 0 in
19:19 45.5 °F 27.9 °F 30.29 in Calm   -999.0 mph 50% 0 in
19:34 45.1 °F 29.4 °F 30.29 in Calm   -999.0 mph 54% 0 in
19:49 44.2 °F 29.1 °F 30.29 in Calm   -999.0 mph 55% 0 in
20:04 43.5 °F 29.3 °F 30.29 in Calm   -999.0 mph 57% 0 in
20:19 43.0 °F 28.8 °F 30.29 in Calm   -999.0 mph 57% 0 in
20:35 43.0 °F 27.0 °F 30.30 in Calm   -999.0 mph 53% 0 in
20:50 42.1 °F 26.6 °F 30.30 in Calm   -999.0 mph 54% 0 in
21:05 41.5 °F 26.1 °F 30.30 in Calm   -999.0 mph 54% 0 in
21:36 40.3 °F 25.8 °F 30.29 in Calm   -999.0 mph 56% 0 in
21:51 40.5 °F 25.6 °F 30.30 in Calm   -999.0 mph 55% 0 in
22:07 40.1 °F 26.1 °F 30.29 in SSE 1.1 mph -999.0 mph 57% 0 in
22:37 39.7 °F 27.3 °F 30.29 in Calm   -999.0 mph 61% 0 in
22:52 39.0 °F 29.3 °F 30.29 in Calm   -999.0 mph 68% 0 in
23:23 38.5 °F 25.4 °F 30.28 in Calm   -999.0 mph 59% 0 in
23:38 38.3 °F 25.2 °F 30.28 in Calm   -999.0 mph 59% 0 in
23:53 37.9 °F 24.8 °F 30.27 in Calm   -999.0 mph 59% 0 in
Big Bear CA Weather